Time;durP1;ratioP1;P1;durP2;ratioP2;P2;SDS_P1;SDS_P2;PMS_P1;PMS_P2;Temp;Humidity;BMP_temperature;BMP_pressure;BME280_temperature;BME280_humidity;BME280_pressure;Samples;Min_cycle;Max_cycle;Signal;HPM_P1;HPM_P2
2023/09/30 00:01:27;;;;;;;21.38;3.50;;;36.60;47.30;;;;;;5049689;28;20047;-63
2023/09/30 00:03:54;;;;;;;19.35;3.00;;;36.50;48.00;;;;;;5049308;28;20036;-66
2023/09/30 00:06:20;;;;;;;26.40;2.90;;;36.40;48.70;;;;;;5054062;28;20021;-63
2023/09/30 00:08:47;;;;;;;31.30;3.13;;;36.40;48.80;;;;;;5053359;28;20017;-66
2023/09/30 00:11:17;;;;;;;20.67;2.83;;;36.30;49.30;;;;;;5051201;28;20024;-66
2023/09/30 00:13:43;;;;;;;28.30;3.80;;;36.30;49.10;;;;;;5050102;28;20478;-60
2023/09/30 00:16:10;;;;;;;25.13;3.17;;;36.20;49.10;;;;;;5047119;28;20025;-60
2023/09/30 00:18:36;;;;;;;22.58;3.35;;;36.10;49.20;;;;;;5046768;28;20504;-62
2023/09/30 00:21:03;;;;;;;18.05;3.15;;;36.00;49.40;;;;;;5029471;28;20033;-62
2023/09/30 00:23:29;;;;;;;23.77;3.55;;;35.80;49.40;;;;;;5051021;28;20047;-63
2023/09/30 00:25:56;;;;;;;26.30;3.70;;;35.70;49.70;;;;;;5046185;28;20443;-63
2023/09/30 00:28:23;;;;;;;38.20;4.18;;;35.70;49.90;;;;;;5031169;28;20096;-62
2023/09/30 00:30:50;;;;;;;21.30;3.22;;;35.60;49.80;;;;;;5045342;28;20032;-63
2023/09/30 00:33:16;;;;;;;19.92;3.28;;;35.50;49.80;;;;;;5051783;28;20017;-62
2023/09/30 00:35:42;;;;;;;24.98;3.15;;;35.50;49.70;;;;;;5046490;28;20207;-63
2023/09/30 00:38:10;;;;;;;18.70;3.47;;;35.40;49.30;;;;;;5049319;28;20021;-66
2023/09/30 00:40:36;;;;;;;32.47;3.85;;;35.40;49.30;;;;;;5052544;28;20025;-60
2023/09/30 00:43:03;;;;;;;33.97;17.83;;;35.20;49.90;;;;;;5048624;28;20037;-62
2023/09/30 00:45:31;;;;;;;39.70;17.42;;;35.10;49.70;;;;;;5045759;28;20017;-63
2023/09/30 00:47:57;;;;;;;41.92;17.80;;;35.00;49.10;;;;;;5049563;28;20013;-63
2023/09/30 00:50:26;;;;;;;32.00;16.67;;;35.00;48.50;;;;;;5048835;28;20009;-64
2023/09/30 00:52:53;;;;;;;43.83;16.48;;;34.90;48.00;;;;;;5047180;28;20021;-64
2023/09/30 00:55:20;;;;;;;20.10;2.90;;;34.90;47.80;;;;;;5052285;28;20013;-62
2023/09/30 00:57:47;;;;;;;19.55;3.13;;;34.90;47.90;;;;;;5051565;28;20021;-63
2023/09/30 01:00:14;;;;;;;23.85;3.92;;;34.80;48.20;;;;;;5046087;28;20421;-63
2023/09/30 01:02:41;;;;;;;22.27;4.80;;;34.70;48.70;;;;;;5049438;28;20055;-58
2023/09/30 01:05:09;;;;;;;34.92;4.38;;;34.60;49.10;;;;;;5050004;28;20052;-62
2023/09/30 01:07:36;;;;;;;28.75;3.53;;;34.50;49.70;;;;;;5049977;28;20021;-61
2023/09/30 01:10:04;;;;;;;27.92;4.13;;;34.50;49.70;;;;;;5047858;28;20021;-61
2023/09/30 01:12:31;;;;;;;38.92;4.45;;;34.40;50.40;;;;;;5028990;28;20028;-60
2023/09/30 01:15:04;;;;;;;42.03;3.65;;;34.40;49.60;;;;;;5051735;28;20030;-62
2023/09/30 01:17:31;;;;;;;27.42;3.60;;;34.40;49.20;;;;;;5048079;28;21763;-64
2023/09/30 01:20:05;;;;;;;32.10;4.05;;;34.30;49.60;;;;;;5046426;28;20087;-62
2023/09/30 01:22:31;;;;;;;29.08;2.97;;;34.30;49.60;;;;;;5047702;28;20044;-61
2023/09/30 01:24:58;;;;;;;24.48;3.22;;;34.20;50.60;;;;;;5046353;28;20024;-62
2023/09/30 01:27:25;;;;;;;23.77;3.83;;;34.00;51.40;;;;;;5051513;28;20017;-63
2023/09/30 01:29:52;;;;;;;22.35;3.70;;;34.00;52.30;;;;;;5044940;28;20017;-64
2023/09/30 01:32:18;;;;;;;15.85;3.67;;;33.90;52.80;;;;;;5051481;28;20028;-64
2023/09/30 01:34:45;;;;;;;12.07;3.20;;;33.80;53.20;;;;;;5050113;28;20063;-66
2023/09/30 01:37:11;;;;;;;24.08;3.63;;;33.70;53.30;;;;;;5027939;28;20025;-63
2023/09/30 01:39:38;;;;;;;25.70;3.55;;;33.70;53.30;;;;;;5044028;28;20685;-64
2023/09/30 01:42:04;;;;;;;25.00;3.70;;;33.60;53.10;;;;;;5047206;28;20025;-65
2023/09/30 01:44:32;;;;;;;23.83;4.07;;;33.50;53.20;;;;;;5052788;28;20051;-65
2023/09/30 01:46:59;;;;;;;22.23;4.30;;;33.40;52.70;;;;;;5049750;28;20354;-64
2023/09/30 01:49:26;;;;;;;20.85;4.13;;;33.30;52.40;;;;;;5052839;28;20749;-62
2023/09/30 01:51:53;;;;;;;25.80;5.18;;;33.30;52.30;;;;;;5054352;28;20028;-67
2023/09/30 01:54:19;;;;;;;22.35;3.88;;;33.20;52.60;;;;;;5043405;28;20071;-64
2023/09/30 01:56:46;;;;;;;15.15;3.88;;;33.10;52.60;;;;;;5047201;28;20021;-66
2023/09/30 01:59:12;;;;;;;18.65;4.03;;;33.10;52.60;;;;;;5046396;28;20531;-65
2023/09/30 02:01:39;;;;;;;22.52;3.78;;;33.10;52.90;;;;;;5049404;28;20025;-64
2023/09/30 02:04:06;;;;;;;14.27;3.63;;;33.00;52.70;;;;;;5057446;28;20116;-60
2023/09/30 02:06:33;;;;;;;21.25;3.92;;;33.00;52.80;;;;;;5032936;28;20028;-64
2023/09/30 02:09:00;;;;;;;17.20;3.67;;;32.90;52.90;;;;;;5050067;28;20010;-62
2023/09/30 02:11:27;;;;;;;17.23;3.80;;;32.90;53.50;;;;;;5054720;28;20078;-63
2023/09/30 02:13:54;;;;;;;21.45;3.63;;;32.90;53.30;;;;;;5048247;28;20024;-62
2023/09/30 02:16:20;;;;;;;18.30;3.67;;;32.80;53.00;;;;;;5050281;28;20020;-61
2023/09/30 02:18:50;;;;;;;17.75;2.80;;;32.70;53.00;;;;;;5048748;28;20031;-64
2023/09/30 02:21:17;;;;;;;14.50;2.92;;;32.70;51.70;;;;;;5044106;28;20406;-62
2023/09/30 02:23:47;;;;;;;14.15;3.00;;;32.70;52.20;;;;;;5056641;28;20009;-66
2023/09/30 02:26:15;;;;;;;12.65;3.08;;;32.70;52.00;;;;;;5047877;28;20087;-66
2023/09/30 02:28:42;;;;;;;16.27;3.60;;;32.60;52.60;;;;;;5046757;28;20440;-65
2023/09/30 02:31:08;;;;;;;17.35;2.78;;;32.50;52.10;;;;;;5047127;28;20021;-66
2023/09/30 02:33:38;;;;;;;15.70;3.47;;;32.50;52.80;;;;;;5056216;28;20017;-65
2023/09/30 02:36:08;;;;;;;25.25;3.70;;;32.40;52.50;;;;;;5048779;28;20013;-66
2023/09/30 02:38:38;;;;;;;19.77;4.50;;;32.40;52.80;;;;;;5050011;28;20017;-64
2023/09/30 02:41:05;;;;;;;20.65;4.00;;;32.40;52.90;;;;;;5056551;28;20428;-65
2023/09/30 02:43:33;;;;;;;19.70;4.47;;;32.30;50.90;;;;;;5051334;28;20009;-63
2023/09/30 02:45:59;;;;;;;19.92;4.50;;;32.20;49.10;;;;;;5056318;28;20416;-63
2023/09/30 02:48:26;;;;;;;18.92;4.43;;;32.20;49.60;;;;;;5053329;28;20029;-63
2023/09/30 02:50:54;;;;;;;22.13;4.28;;;32.10;50.40;;;;;;5049536;28;20029;-61
2023/09/30 02:53:21;;;;;;;26.67;4.85;;;32.00;49.20;;;;;;5049547;28;20352;-66
2023/09/30 02:55:49;;;;;;;12.48;3.47;;;31.90;46.80;;;;;;5055240;28;20420;-65
2023/09/30 02:58:18;;;;;;;14.02;4.03;;;31.90;46.20;;;;;;5053137;28;20487;-66
2023/09/30 03:00:49;;;;;;;19.25;4.70;;;31.80;46.00;;;;;;5058920;28;20462;-66
2023/09/30 03:03:15;;;;;;;16.27;4.00;;;31.80;45.60;;;;;;5058907;28;20033;-67
2023/09/30 03:05:42;;;;;;;26.00;5.00;;;31.80;46.10;;;;;;5057716;28;20045;-61
2023/09/30 03:08:10;;;;;;;32.70;4.70;;;31.70;47.00;;;;;;5057603;28;20017;-64
2023/09/30 03:10:40;;;;;;;26.38;5.03;;;31.60;46.70;;;;;;5055402;28;20020;-69
2023/09/30 03:13:08;;;;;;;33.58;4.53;;;31.50;46.60;;;;;;5052829;28;20029;-66
2023/09/30 03:15:36;;;;;;;21.58;4.53;;;31.40;47.30;;;;;;5049075;28;20017;-64
2023/09/30 03:18:03;;;;;;;22.08;5.45;;;31.30;46.20;;;;;;5052041;28;20013;-65
2023/09/30 03:20:30;;;;;;;23.90;5.35;;;31.20;46.80;;;;;;5060530;28;20015;-67
2023/09/30 03:22:57;;;;;;;17.98;4.70;;;31.10;46.80;;;;;;5057635;28;20074;-64
2023/09/30 03:25:24;;;;;;;18.85;4.55;;;31.00;46.80;;;;;;5059343;28;20057;-65
2023/09/30 03:27:50;;;;;;;27.05;4.43;;;31.00;47.10;;;;;;5054140;28;20035;-64
2023/09/30 03:30:19;;;;;;;30.70;4.97;;;30.90;46.40;;;;;;5049179;28;20017;-63
2023/09/30 03:32:46;;;;;;;20.55;5.50;;;30.80;46.40;;;;;;5050562;28;20021;-63
2023/09/30 03:35:16;;;;;;;16.30;4.97;;;30.70;46.60;;;;;;5051849;28;20105;-67
2023/09/30 03:37:47;;;;;;;25.63;5.55;;;30.60;46.80;;;;;;5032363;28;20025;-62
2023/09/30 03:40:14;;;;;;;21.20;4.95;;;30.60;47.00;;;;;;5051450;28;20029;-67
2023/09/30 03:42:49;;;;;;;23.42;4.97;;;30.60;46.70;;;;;;5053197;28;20078;-66
2023/09/30 03:45:15;;;;;;;24.30;5.40;;;30.60;46.70;;;;;;5054980;28;20477;-63
2023/09/30 03:47:43;;;;;;;34.30;5.18;;;30.50;47.20;;;;;;5047744;28;20035;-63
2023/09/30 03:50:14;;;;;;;33.80;5.78;;;30.50;47.30;;;;;;5052767;28;20063;-61
2023/09/30 03:52:45;;;;;;;19.50;4.43;;;30.40;47.40;;;;;;5033563;28;20048;-62
2023/09/30 03:55:12;;;;;;;31.35;4.60;;;30.30;47.40;;;;;;5050032;28;20504;-67
2023/09/30 03:57:39;;;;;;;39.15;4.43;;;30.20;47.70;;;;;;5032354;28;20151;-64
2023/09/30 04:00:06;;;;;;;22.33;5.88;;;30.20;47.70;;;;;;5050408;28;20021;-64
2023/09/30 04:02:33;;;;;;;29.60;5.07;;;30.10;48.00;;;;;;5051134;28;20082;-64
2023/09/30 04:05:05;;;;;;;24.45;5.63;;;30.00;48.30;;;;;;5058401;28;20025;-64
2023/09/30 04:07:32;;;;;;;30.58;5.70;;;30.00;48.50;;;;;;5057539;28;20028;-66
2023/09/30 04:10:01;;;;;;;41.05;6.00;;;29.90;48.90;;;;;;5054548;28;20005;-68
2023/09/30 04:12:28;;;;;;;39.08;6.07;;;29.90;49.10;;;;;;5052958;28;20025;-61
2023/09/30 04:14:54;;;;;;;27.67;5.38;;;30.10;48.50;;;;;;5048222;28;20024;-61
2023/09/30 04:17:22;;;;;;;31.08;5.47;;;30.50;48.60;;;;;;5049099;28;20028;-67
2023/09/30 04:19:51;;;;;;;46.80;6.85;;;30.70;47.90;;;;;;5049336;28;20025;-63
2023/09/30 04:22:18;;;;;;;31.27;5.68;;;30.70;47.70;;;;;;5051515;28;20020;-68
2023/09/30 04:24:45;;;;;;;24.30;5.10;;;30.80;47.90;;;;;;5049855;28;20414;-65
2023/09/30 04:27:12;;;;;;;34.97;5.50;;;31.10;48.30;;;;;;5048264;28;20052;-62
2023/09/30 04:29:39;;;;;;;25.95;4.97;;;31.10;48.30;;;;;;5051353;28;20017;-65
2023/09/30 04:32:06;;;;;;;22.15;5.15;;;31.00;48.10;;;;;;5049765;28;20023;-63
2023/09/30 04:34:32;;;;;;;24.05;4.72;;;30.90;48.10;;;;;;5047810;28;20021;-64
2023/09/30 04:36:59;;;;;;;40.47;6.10;;;31.10;48.00;;;;;;5047508;28;20020;-62
2023/09/30 04:39:26;;;;;;;18.15;4.30;;;31.00;48.20;;;;;;5047590;28;20012;-63
2023/09/30 04:41:53;;;;;;;23.77;5.15;;;31.00;47.90;;;;;;5046889;28;20135;-60
2023/09/30 04:44:19;;;;;;;22.13;4.93;;;30.90;48.20;;;;;;5047622;28;20048;-64
2023/09/30 04:46:46;;;;;;;29.23;5.18;;;30.80;48.40;;;;;;5054383;28;20024;-61
2023/09/30 04:49:17;;;;;;;24.05;5.22;;;30.80;48.50;;;;;;5048276;28;20726;-63
2023/09/30 04:51:44;;;;;;;25.30;5.30;;;30.80;48.70;;;;;;5058886;28;20078;-60
2023/09/30 04:54:10;;;;;;;17.60;4.72;;;30.70;48.70;;;;;;5047354;28;20020;-59
2023/09/30 04:56:38;;;;;;;30.00;4.93;;;30.60;49.10;;;;;;5051156;28;20103;-63
2023/09/30 04:59:05;;;;;;;20.58;4.43;;;30.50;48.60;;;;;;5054851;28;20056;-62
2023/09/30 05:01:31;;;;;;;14.77;4.30;;;30.30;48.90;;;;;;5047269;28;20033;-61
2023/09/30 05:03:58;;;;;;;21.02;5.22;;;30.20;49.30;;;;;;5052368;28;20017;-63
2023/09/30 05:06:25;;;;;;;19.00;4.65;;;30.20;49.20;;;;;;5051026;28;20024;-64
2023/09/30 05:08:52;;;;;;;21.55;4.88;;;30.20;49.50;;;;;;5062548;28;20523;-61
2023/09/30 05:11:18;;;;;;;22.52;4.40;;;30.10;49.20;;;;;;5047728;28;20535;-62
2023/09/30 05:13:45;;;;;;;28.13;4.72;;;30.10;49.10;;;;;;5048234;28;20112;-66
2023/09/30 05:16:13;;;;;;;14.43;3.88;;;30.10;49.90;;;;;;5048689;28;20053;-63
2023/09/30 05:18:39;;;;;;;25.27;4.97;;;30.10;49.10;;;;;;5051118;28;20082;-62
2023/09/30 05:21:06;;;;;;;21.40;5.07;;;29.90;48.90;;;;;;5046216;28;20051;-64
2023/09/30 05:23:34;;;;;;;19.33;5.30;;;29.80;49.40;;;;;;5046536;28;20057;-61
2023/09/30 05:26:01;;;;;;;18.15;4.55;;;29.70;49.20;;;;;;5048701;28;20697;-62
2023/09/30 05:28:28;;;;;;;21.30;5.15;;;29.70;49.60;;;;;;5049081;28;20048;-63
2023/09/30 05:30:54;;;;;;;37.17;5.18;;;29.60;50.00;;;;;;5048142;28;20473;-64
2023/09/30 05:33:22;;;;;;;26.40;5.25;;;29.50;50.20;;;;;;5048501;28;20338;-64
2023/09/30 05:35:49;;;;;;;22.70;5.57;;;29.40;49.50;;;;;;5049730;28;20016;-64
2023/09/30 05:38:15;;;;;;;14.63;4.13;;;29.30;49.70;;;;;;5049991;28;20013;-65
2023/09/30 05:40:43;;;;;;;24.52;4.88;;;29.30;49.50;;;;;;5047639;28;20017;-63
2023/09/30 05:43:13;;;;;;;20.45;6.28;;;29.20;50.00;;;;;;5050828;28;20028;-64
2023/09/30 05:45:49;;;;;;;25.25;5.85;;;29.10;49.50;;;;;;5049981;28;20013;-67
2023/09/30 05:48:16;;;;;;;25.83;12.00;;;29.20;49.90;;;;;;5050462;28;20092;-60
2023/09/30 05:50:43;;;;;;;26.48;6.93;;;29.20;49.30;;;;;;5051248;28;20108;-62
2023/09/30 05:53:13;;;;;;;33.00;16.55;;;29.10;49.40;;;;;;5050485;28;20132;-67
2023/09/30 05:55:42;;;;;;;38.67;7.13;;;29.10;49.50;;;;;;5053063;28;20053;-67
2023/09/30 05:58:18;;;;;;;29.73;5.10;;;29.10;49.60;;;;;;5049472;28;20021;-62
2023/09/30 06:00:45;;;;;;;26.25;5.47;;;29.10;49.40;;;;;;5047203;28;20354;-67
2023/09/30 06:03:11;;;;;;;19.10;4.57;;;29.00;49.30;;;;;;5050461;28;20036;-58
2023/09/30 06:05:41;;;;;;;21.65;5.07;;;28.90;49.10;;;;;;5047124;28;20032;-70
2023/09/30 06:08:13;;;;;;;23.75;4.70;;;28.90;49.40;;;;;;5046528;28;20021;-65
2023/09/30 06:10:43;;;;;;;23.42;4.45;;;28.80;49.50;;;;;;5045574;28;20013;-70
2023/09/30 06:13:11;;;;;;;29.63;5.57;;;28.70;49.10;;;;;;5049337;28;20100;-73
2023/09/30 06:15:41;;;;;;;32.28;5.72;;;28.60;48.90;;;;;;5053651;28;20043;-65
2023/09/30 06:18:09;;;;;;;27.35;5.40;;;28.60;49.50;;;;;;5048291;28;20047;-64
2023/09/30 06:20:36;;;;;;;22.63;5.05;;;28.60;49.40;;;;;;5047034;28;20024;-66
2023/09/30 06:23:03;;;;;;;27.60;5.72;;;28.60;49.40;;;;;;5054707;28;20064;-65
2023/09/30 06:25:32;;;;;;;26.40;5.20;;;28.50;49.40;;;;;;5053218;28;20043;-71
2023/09/30 06:27:59;;;;;;;23.15;4.95;;;28.50;49.30;;;;;;5047256;28;20021;-64
2023/09/30 06:30:33;;;;;;;30.65;4.55;;;28.50;48.90;;;;;;5046835;28;20023;-62
2023/09/30 06:33:01;;;;;;;23.38;4.60;;;28.50;49.30;;;;;;5048056;28;20054;-64
2023/09/30 06:35:37;;;;;;;29.50;5.20;;;28.30;49.20;;;;;;5049685;28;20023;-59
2023/09/30 06:38:05;;;;;;;18.20;4.60;;;28.30;48.90;;;;;;5048911;28;20057;-61
2023/09/30 06:40:31;;;;;;;26.50;4.90;;;28.30;48.70;;;;;;5046852;28;20071;-62
2023/09/30 06:42:58;;;;;;;26.15;4.82;;;28.30;49.00;;;;;;5049829;28;20059;-63
2023/09/30 06:45:24;;;;;;;20.23;4.97;;;28.30;48.50;;;;;;5053589;28;20042;-63
2023/09/30 06:47:54;;;;;;;27.27;4.57;;;28.30;49.30;;;;;;5051942;28;20073;-65
2023/09/30 06:50:21;;;;;;;24.73;4.88;;;28.20;49.00;;;;;;5046683;28;21466;-64
2023/09/30 06:52:49;;;;;;;38.33;5.30;;;28.20;49.00;;;;;;5048495;28;20058;-65
2023/09/30 06:55:18;;;;;;;26.60;4.63;;;28.20;49.10;;;;;;5046661;28;20086;-62
2023/09/30 06:57:45;;;;;;;25.65;5.25;;;28.10;49.10;;;;;;5047698;28;20075;-65
2023/09/30 07:00:13;;;;;;;26.13;4.68;;;28.10;49.80;;;;;;5045364;28;20039;-65
2023/09/30 07:02:41;;;;;;;34.95;5.35;;;28.20;50.10;;;;;;5045012;28;20074;-66
2023/09/30 07:05:12;;;;;;;24.90;5.43;;;28.20;49.00;;;;;;5045072;28;20037;-63
2023/09/30 07:07:39;;;;;;;34.42;6.15;;;28.20;49.60;;;;;;5045453;28;20013;-62
2023/09/30 07:10:09;;;;;;;29.13;6.43;;;28.10;48.60;;;;;;5046381;28;20013;-65
2023/09/30 07:12:36;;;;;;;31.80;6.05;;;28.10;47.40;;;;;;5046239;28;20029;-60
2023/09/30 07:15:06;;;;;;;41.28;6.07;;;28.20;47.20;;;;;;5046510;28;20105;-64
2023/09/30 07:17:36;;;;;;;30.08;5.85;;;28.20;47.00;;;;;;5043044;28;20043;-59
2023/09/30 07:20:04;;;;;;;38.38;6.95;;;28.20;47.40;;;;;;5047275;28;20079;-65
2023/09/30 07:22:31;;;;;;;45.00;7.55;;;28.10;46.80;;;;;;5052155;28;20048;-65
2023/09/30 07:24:58;;;;;;;49.45;6.97;;;28.10;46.30;;;;;;5047053;28;20024;-61
2023/09/30 07:27:25;;;;;;;44.50;6.20;;;28.10;46.90;;;;;;5046185;28;20047;-61
2023/09/30 07:29:51;;;;;;;53.28;7.57;;;28.00;46.70;;;;;;5047990;28;20126;-63
2023/09/30 07:32:18;;;;;;;38.72;6.45;;;28.00;47.00;;;;;;5050064;28;20055;-65
2023/09/30 07:34:44;;;;;;;31.10;6.43;;;28.00;46.40;;;;;;5051256;28;20112;-63
2023/09/30 07:37:11;;;;;;;36.58;7.75;;;27.90;45.90;;;;;;5049278;28;20043;-66
2023/09/30 07:39:38;;;;;;;33.05;7.40;;;27.80;45.20;;;;;;5048822;28;20062;-65
2023/09/30 07:42:04;;;;;;;34.53;7.40;;;27.80;45.50;;;;;;5044028;28;20047;-63
2023/09/30 07:44:31;;;;;;;44.55;6.70;;;27.80;45.30;;;;;;5044536;28;20544;-65
2023/09/30 07:46:58;;;;;;;30.65;6.78;;;27.70;47.10;;;;;;5046774;28;20437;-64
2023/09/30 07:49:25;;;;;;;42.15;6.10;;;27.70;45.50;;;;;;5049780;28;20051;-63
2023/09/30 07:51:51;;;;;;;40.88;5.95;;;27.60;44.90;;;;;;5050521;28;20177;-63
2023/09/30 07:54:17;;;;;;;47.17;7.57;;;27.60;45.20;;;;;;5047282;28;20043;-64
2023/09/30 07:56:44;;;;;;;39.97;6.22;;;27.60;44.40;;;;;;5050197;28;20469;-65
2023/09/30 07:59:10;;;;;;;36.00;5.57;;;27.60;42.90;;;;;;5051009;28;20047;-63
2023/09/30 08:01:37;;;;;;;24.33;5.32;;;27.50;41.70;;;;;;5051529;28;20068;-64
2023/09/30 08:04:04;;;;;;;24.92;5.25;;;27.40;40.40;;;;;;5052122;28;20017;-64
2023/09/30 08:06:31;;;;;;;19.67;4.78;;;27.40;40.00;;;;;;5050177;28;20044;-62
2023/09/30 08:08:57;;;;;;;22.98;4.43;;;27.40;39.20;;;;;;5049801;28;20024;-65
2023/09/30 08:11:27;;;;;;;15.43;4.35;;;27.30;39.00;;;;;;5050825;28;20534;-68
2023/09/30 08:13:54;;;;;;;26.90;5.20;;;27.30;38.80;;;;;;5050280;28;20025;-65
2023/09/30 08:16:21;;;;;;;21.88;5.45;;;27.20;38.80;;;;;;5052777;28;20104;-65
2023/09/30 08:18:48;;;;;;;35.35;6.22;;;27.20;38.50;;;;;;5052268;28;20025;-65
2023/09/30 08:21:15;;;;;;;28.98;5.88;;;27.20;38.60;;;;;;5048780;28;21133;-64
2023/09/30 08:23:42;;;;;;;23.73;4.95;;;27.10;38.40;;;;;;5052242;28;20507;-65
2023/09/30 08:26:09;;;;;;;29.08;5.55;;;27.10;38.60;;;;;;5051312;28;20050;-67
2023/09/30 08:28:35;;;;;;;31.77;5.75;;;27.00;38.70;;;;;;5049947;28;20043;-66
2023/09/30 08:31:06;;;;;;;25.83;5.63;;;27.00;39.00;;;;;;5051305;28;20038;-62
2023/09/30 08:33:33;;;;;;;32.05;6.05;;;27.00;38.90;;;;;;5049293;28;20175;-64
2023/09/30 08:36:07;;;;;;;33.33;5.60;;;26.90;38.70;;;;;;5049473;28;20013;-64
2023/09/30 08:38:38;;;;;;;32.55;5.28;;;26.90;40.10;;;;;;5048953;28;20016;-62
2023/09/30 08:41:07;;;;;;;25.40;5.30;;;26.90;40.30;;;;;;5050313;28;20495;-65
2023/09/30 08:43:39;;;;;;;42.13;6.63;;;26.90;39.90;;;;;;5049024;28;20043;-64
2023/09/30 08:46:06;;;;;;;31.33;6.07;;;26.90;39.70;;;;;;5046774;28;20581;-64
2023/09/30 08:48:33;;;;;;;30.58;5.97;;;27.00;40.20;;;;;;5046098;28;20025;-65
2023/09/30 08:51:01;;;;;;;38.70;6.30;;;27.00;39.70;;;;;;5049657;28;20108;-65
2023/09/30 08:53:30;;;;;;;30.55;5.63;;;27.00;39.30;;;;;;5045437;28;20069;-64
2023/09/30 08:55:58;;;;;;;32.63;6.57;;;26.90;39.60;;;;;;5048202;28;20019;-64
2023/09/30 08:58:28;;;;;;;41.90;6.75;;;26.80;39.60;;;;;;5048621;28;20047;-62
2023/09/30 09:00:56;;;;;;;33.13;6.22;;;26.80;39.90;;;;;;5048095;28;20093;-66
2023/09/30 09:03:23;;;;;;;38.25;7.32;;;26.80;40.10;;;;;;5050331;28;20456;-63
2023/09/30 09:05:56;;;;;;;47.47;6.88;;;26.70;39.00;;;;;;5048974;28;20063;-62
2023/09/30 09:08:26;;;;;;;46.58;6.30;;;26.70;39.70;;;;;;5029801;28;20662;-64
2023/09/30 09:11:02;;;;;;;47.63;6.53;;;26.60;40.20;;;;;;5047681;28;20047;-65
2023/09/30 09:13:44;;;;;;;41.67;6.68;;;26.60;38.70;;;;;;5049153;28;20127;-62
2023/09/30 09:16:11;;;;;;;46.08;6.45;;;26.40;39.10;;;;;;5047844;28;20414;-66
2023/09/30 09:18:40;;;;;;;58.55;7.90;;;26.30;39.10;;;;;;5046966;28;20063;-64
2023/09/30 09:21:20;;;;;;;57.60;7.50;;;26.20;39.10;;;;;;5045830;28;20054;-62
2023/09/30 09:23:51;;;;;;;60.67;7.90;;;26.20;38.90;;;;;;5048284;28;20051;-65
2023/09/30 09:26:29;;;;;;;63.00;9.23;;;26.10;39.30;;;;;;5030758;28;20048;-63
2023/09/30 09:29:01;;;;;;;63.55;8.38;;;25.90;38.80;;;;;;5048632;28;20041;-62
2023/09/30 09:31:34;;;;;;;72.78;9.27;;;25.90;39.30;;;;;;5047563;28;20055;-65
2023/09/30 09:34:01;;;;;;;49.92;8.27;;;25.90;39.30;;;;;;5047657;28;20106;-63
2023/09/30 09:36:44;;;;;;;57.70;7.45;;;25.80;39.40;;;;;;5043313;28;20052;-65
2023/09/30 09:39:15;;;;;;;61.63;8.60;;;25.80;39.70;;;;;;5049249;28;20380;-66
2023/09/30 09:42:01;;;;;;;56.33;9.27;;;25.80;39.80;;;;;;5047772;28;20514;-65
2023/09/30 09:44:27;;;;;;;52.20;8.32;;;25.70;39.50;;;;;;5047805;28;20053;-64
2023/09/30 09:46:54;;;;;;;55.70;8.38;;;25.60;40.30;;;;;;5045088;28;20409;-64
2023/09/30 09:49:21;;;;;;;62.47;8.25;;;25.60;41.10;;;;;;5051040;28;20055;-64
2023/09/30 09:51:49;;;;;;;53.78;7.55;;;25.50;41.50;;;;;;5050847;28;20063;-62
2023/09/30 09:54:17;;;;;;;64.13;8.60;;;25.50;41.90;;;;;;5051120;28;20517;-65
2023/09/30 09:56:48;;;;;;;46.40;7.25;;;25.40;42.30;;;;;;5046612;28;20418;-66
2023/09/30 09:59:15;;;;;;;50.40;8.43;;;25.30;43.00;;;;;;5044713;28;20059;-66
2023/09/30 10:01:42;;;;;;;53.80;7.22;;;25.10;43.50;;;;;;5045524;28;20044;-62
2023/09/30 10:04:10;;;;;;;50.65;8.35;;;25.10;44.10;;;;;;5047984;28;20054;-66
2023/09/30 10:06:40;;;;;;;58.95;7.60;;;25.10;44.70;;;;;;5046425;28;20042;-66
2023/09/30 10:09:12;;;;;;;63.60;7.00;;;25.00;44.80;;;;;;5046887;28;20052;-67
2023/09/30 10:11:40;;;;;;;45.30;7.05;;;25.00;45.10;;;;;;5045109;28;20068;-64
2023/09/30 10:14:12;;;;;;;43.83;7.47;;;24.90;45.90;;;;;;5047753;28;20574;-64
2023/09/30 10:16:39;;;;;;;57.30;6.97;;;24.90;46.60;;;;;;5049238;28;20057;-66
2023/09/30 10:19:14;;;;;;;43.25;7.55;;;24.80;46.90;;;;;;5048604;28;20094;-65
2023/09/30 10:21:59;;;;;;;37.92;7.00;;;24.80;47.50;;;;;;5047349;28;20046;-64
2023/09/30 10:24:27;;;;;;;40.00;7.40;;;24.80;47.20;;;;;;5045275;28;20050;-63
2023/09/30 10:27:28;;;;;;;39.03;6.00;;;24.80;47.90;;;;;;5045475;28;20174;-65
2023/09/30 10:29:59;;;;;;;40.38;6.68;;;24.90;47.90;;;;;;5041069;28;20061;-65
2023/09/30 10:32:50;;;;;;;28.48;5.45;;;24.90;48.30;;;;;;5046285;28;20142;-61
2023/09/30 10:35:18;;;;;;;31.15;6.13;;;24.90;48.10;;;;;;5046208;28;20048;-63
2023/09/30 10:37:45;;;;;;;34.58;6.03;;;24.90;48.40;;;;;;5048754;28;20041;-65
2023/09/30 10:40:31;;;;;;;26.55;5.65;;;24.80;48.70;;;;;;5043709;28;20140;-64
2023/09/30 10:42:58;;;;;;;34.45;5.90;;;24.80;49.00;;;;;;5046790;28;20138;-64
2023/09/30 10:45:45;;;;;;;23.67;5.20;;;24.80;48.80;;;;;;5045910;28;20098;-67
2023/09/30 10:48:26;;;;;;;30.20;6.00;;;24.90;49.40;;;;;;5048257;28;20061;-61
2023/09/30 10:50:58;;;;;;;39.45;6.18;;;24.90;49.40;;;;;;5047764;28;20101;-64
2023/09/30 10:53:27;;;;;;;20.20;5.63;;;24.80;49.60;;;;;;5045174;28;20393;-65
2023/09/30 10:56:01;;;;;;;31.02;5.40;;;24.70;49.80;;;;;;5047027;28;20067;-64
2023/09/30 10:59:03;;;;;;;20.73;5.65;;;24.50;50.20;;;;;;5044597;28;20057;-61
2023/09/30 11:01:38;;;;;;;40.17;6.53;;;24.40;50.30;;;;;;4975702;28;20056;-62
2023/09/30 11:04:08;;;;;;;30.98;6.00;;;24.40;51.10;;;;;;4972051;28;20073;-65
2023/09/30 11:06:35;;;;;;;36.70;6.47;;;24.30;51.00;;;;;;4957301;28;20061;-64
2023/09/30 11:09:03;;;;;;;27.48;6.15;;;24.30;51.50;;;;;;4958931;28;20078;-63
2023/09/30 11:11:55;;;;;;;26.88;6.35;;;24.30;51.80;;;;;;4952383;28;20534;-63
2023/09/30 11:14:23;;;;;;;34.00;6.10;;;24.30;52.30;;;;;;4952393;28;20057;-65
2023/09/30 11:16:51;;;;;;;25.63;5.93;;;24.30;52.30;;;;;;4958856;28;20058;-66
2023/09/30 11:19:21;;;;;;;32.25;5.90;;;24.30;52.10;;;;;;4955110;28;20423;-64
2023/09/30 11:21:53;;;;;;;27.73;5.68;;;24.30;51.40;;;;;;4959754;28;20066;-62
2023/09/30 11:24:20;;;;;;;19.15;5.22;;;24.30;51.60;;;;;;4951316;28;20098;-66
2023/09/30 11:26:47;;;;;;;27.73;5.68;;;24.20;52.80;;;;;;4957672;28;20049;-65
2023/09/30 11:29:16;;;;;;;25.38;5.75;;;24.10;52.80;;;;;;4957519;28;20417;-66
2023/09/30 11:31:43;;;;;;;27.92;5.68;;;24.10;52.90;;;;;;4957842;28;20103;-66
2023/09/30 11:34:11;;;;;;;25.73;5.72;;;24.00;53.30;;;;;;4954818;28;20113;-65
2023/09/30 11:36:42;;;;;;;27.90;6.68;;;24.00;53.90;;;;;;5007178;28;20053;-65
2023/09/30 11:39:09;;;;;;;25.70;5.50;;;24.00;53.90;;;;;;5010891;28;20049;-65
2023/09/30 11:41:41;;;;;;;24.42;6.28;;;23.80;54.10;;;;;;5013269;28;20063;-60
2023/09/30 11:44:16;;;;;;;24.85;6.18;;;23.80;54.10;;;;;;5008524;28;20051;-64
2023/09/30 11:46:56;;;;;;;24.65;5.93;;;23.70;53.70;;;;;;5013543;28;20062;-63
2023/09/30 11:49:29;;;;;;;28.00;5.82;;;23.80;53.60;;;;;;5011996;28;20096;-63
2023/09/30 11:51:58;;;;;;;19.15;5.75;;;23.70;53.80;;;;;;5010826;28;20136;-60
2023/09/30 11:54:33;;;;;;;21.08;5.97;;;23.70;53.60;;;;;;5009325;28;20043;-65
2023/09/30 11:57:03;;;;;;;23.48;5.53;;;23.60;53.50;;;;;;5010233;28;20423;-65
2023/09/30 11:59:30;;;;;;;27.02;5.32;;;23.60;53.50;;;;;;5010418;28;20710;-60
2023/09/30 12:01:58;;;;;;;16.85;5.35;;;23.60;53.50;;;;;;5009988;28;20049;-65
2023/09/30 12:04:25;;;;;;;19.80;5.30;;;23.60;53.30;;;;;;5018904;28;20078;-65
2023/09/30 12:06:52;;;;;;;16.08;4.57;;;23.60;53.10;;;;;;5049394;28;20461;-63
2023/09/30 12:09:22;;;;;;;27.85;5.32;;;23.60;53.20;;;;;;5049157;28;20053;-64
2023/09/30 12:11:57;;;;;;;23.80;5.35;;;23.60;53.20;;;;;;5050393;28;20097;-65
2023/09/30 12:14:24;;;;;;;21.45;4.93;;;23.60;52.70;;;;;;5050917;28;20049;-65
2023/09/30 12:16:51;;;;;;;30.02;5.60;;;23.60;53.40;;;;;;5046845;28;20046;-64
2023/09/30 12:19:18;;;;;;;24.95;5.63;;;23.60;53.70;;;;;;5048208;28;20060;-65
2023/09/30 12:21:48;;;;;;;34.08;5.90;;;23.40;53.30;;;;;;5051226;28;21139;-63
2023/09/30 12:24:24;;;;;;;31.55;6.15;;;23.40;53.20;;;;;;5049863;28;20058;-65
2023/09/30 12:26:52;;;;;;;32.53;5.80;;;23.50;53.60;;;;;;5053331;28;20546;-66
2023/09/30 12:29:21;;;;;;;20.58;5.13;;;23.40;53.40;;;;;;5053316;28;20071;-68
2023/09/30 12:31:52;;;;;;;31.90;6.15;;;23.50;54.00;;;;;;5050652;28;20093;-66
2023/09/30 12:34:19;;;;;;;28.33;6.13;;;23.40;53.90;;;;;;5049918;28;20061;-65
2023/09/30 12:36:46;;;;;;;35.10;5.30;;;23.30;54.30;;;;;;5049712;28;20395;-62
2023/09/30 12:39:13;;;;;;;26.85;5.85;;;23.20;54.10;;;;;;5050585;28;20056;-64
2023/09/30 12:41:44;;;;;;;26.83;5.25;;;23.20;53.90;;;;;;5051235;28;20050;-65
2023/09/30 12:44:11;;;;;;;26.98;5.68;;;23.30;53.90;;;;;;5047277;28;20584;-63